Time;durP1;ratioP1;P1;durP2;ratioP2;P2;SDS_P1;SDS_P2;PMS_P1;PMS_P2;Temp;Humidity;BMP_temperature;BMP_pressure;BME280_temperature;BME280_humidity;BME280_pressure;Samples;Min_cycle;Max_cycle;Signal;HPM_P1;HPM_P2
2024/02/08 00:01:10;;;;;;;;;;;;;;;;;;5108178;28;19908;-84
2024/02/08 00:03:36;;;;;;;;;;;;;;;;;;5097145;28;19945;-84
2024/02/08 00:06:02;;;;;;;;;;;;;;;;;;5108624;28;19912;-84
2024/02/08 00:08:28;;;;;;;;;;;;;;;;;;5108037;28;19916;-85
2024/02/08 00:10:54;;;;;;;;;;;;;;;;;;5104515;28;19961;-84
2024/02/08 00:13:20;;;;;;;;;;;;;;;;;;5103441;28;19915;-85
2024/02/08 00:15:46;;;;;;;;;;;;;;;;;;5108710;28;20339;-84
2024/02/08 00:18:12;;;;;;;;;;;;;;;;;;5086167;28;19912;-84
2024/02/08 00:20:38;;;;;;;;;;;;;;;;;;5107750;28;20421;-84
2024/02/08 00:23:03;;;;;;;;;;;;;;;;;;5107688;28;20338;-84
2024/02/08 00:25:30;;;;;;;;;;;;;;;;;;5107436;28;19941;-85
2024/02/08 00:27:56;;;;;;;;;;;;;;;;;;5108453;28;20002;-84
2024/02/08 00:30:22;;;;;;;;;;;;;;;;;;5105350;28;20014;-85
2024/02/08 00:32:48;;;;;;;;;;;;;;;;;;5109134;28;19911;-85
2024/02/08 00:35:17;;;;;;;;;;;;;;;;;;5104258;28;20255;-85
2024/02/08 00:37:43;;;;;;;;;;;;;;;;;;5103026;28;19953;-85
2024/02/08 00:40:09;;;;;;;;;;;;;;;;;;5107871;28;20282;-85
2024/02/08 00:42:35;;;;;;;;;;;;;;;;;;5097952;28;19953;-87
2024/02/08 00:45:02;;;;;;;;;;;;;;;;;;5093969;28;19908;-86
2024/02/08 00:47:28;;;;;;;;;;;;;;;;;;5107527;28;19907;-86
2024/02/08 00:49:54;;;;;;;;;;;;;;;;;;5113251;28;19964;-86
2024/02/08 00:52:19;;;;;;;;;;;;;;;;;;5111447;28;19907;-87
2024/02/08 00:54:45;;;;;;;;;;;;;;;;;;5107554;28;19954;-87
2024/02/08 00:57:11;;;;;;;;;;;;;;;;;;5100121;28;19988;-87
2024/02/08 00:59:37;;;;;;;;;;;;;;;;;;5112011;28;19911;-84
2024/02/08 01:02:03;;;;;;;;;;;;;;;;;;5107335;27;19908;-85
2024/02/08 01:04:29;;;;;;;;;;;;;;;;;;5111917;27;19947;-85
2024/02/08 01:06:55;;;;;;;;;;;;;;;;;;5112836;28;20584;-87
2024/02/08 01:09:20;;;;;;;;;;;;;;;;;;5110714;27;20075;-84
2024/02/08 01:11:46;;;;;;;;;;;;;;;;;;5109544;28;19911;-85
2024/02/08 01:14:12;;;;;;;;;;;;;;;;;;5108998;27;19912;-85
2024/02/08 01:16:38;;;;;;;;;;;;;;;;;;5109613;28;19908;-85
2024/02/08 01:19:04;;;;;;;;;;;;;;;;;;5108168;28;19911;-85
2024/02/08 01:21:31;;;;;;;;;;;;;;;;;;5111203;28;19914;-85
2024/02/08 01:23:57;;;;;;;;;;;;;;;;;;5109379;28;19908;-85
2024/02/08 01:26:23;;;;;;;;;;;;;;;;;;5109519;28;20293;-85
2024/02/08 01:28:48;;;;;;;;;;;;;;;;;;5112467;28;19961;-85
2024/02/08 01:31:14;;;;;;;;;;;;;;;;;;5109983;28;19914;-84
2024/02/08 01:33:42;;;;;;;;;;;;;;;;;;5111353;27;19950;-85
2024/02/08 01:36:07;;;;;;;;;;;;;;;;;;5110789;28;20420;-85
2024/02/08 01:38:33;;;;;;;;;;;;;;;;;;5110790;27;19962;-85
2024/02/08 01:41:00;;;;;;;;;;;;;;;;;;5108839;27;20362;-85
2024/02/08 01:43:26;;;;;;;;;;;;;;;;;;5111123;28;19915;-85
2024/02/08 01:45:52;;;;;;;;;;;;;;;;;;5110899;28;19912;-85
2024/02/08 01:48:17;;;;;;;;;;;;;;;;;;5108395;28;19926;-85
2024/02/08 01:50:44;;;;;;;;;;;;;;;;;;5109695;28;19915;-85
2024/02/08 01:53:15;;;;;;;;;;;;;;;;;;5110925;27;19922;-85
2024/02/08 01:55:40;;;;;;;;;;;;;;;;;;5106054;28;20014;-84
2024/02/08 01:58:07;;;;;;;;;;;;;;;;;;5110001;28;20023;-84
2024/02/08 02:00:37;;;;;;;;;;;;;;;;;;5111823;28;19908;-83
2024/02/08 02:03:03;;;;;;;;;;;;;;;;;;5108660;28;20598;-84
2024/02/08 02:05:29;;;;;;;;;;;;;;;;;;5102137;28;19918;-86
2024/02/08 02:07:54;;;;;;;;;;;;;;;;;;5109817;28;19907;-83
2024/02/08 02:10:20;;;;;;;;;;;;;;;;;;5092299;28;20399;-84
2024/02/08 02:12:48;;;;;;;;;;;;;;;;;;5109867;28;19938;-84
2024/02/08 02:15:14;;;;;;;;;;;;;;;;;;5110487;28;19914;-86
2024/02/08 02:17:40;;;;;;;;;;;;;;;;;;5109803;27;19908;-84
2024/02/08 02:20:05;;;;;;;;;;;;;;;;;;5091396;28;19908;-86
2024/02/08 02:22:33;;;;;;;;;;;;;;;;;;5107952;27;20010;-84
2024/02/08 02:25:00;;;;;;;;;;;;;;;;;;5110716;28;19912;-86
2024/02/08 02:27:26;;;;;;;;;;;;;;;;;;5109820;28;19907;-84
2024/02/08 02:29:54;;;;;;;;;;;;;;;;;;5106948;28;20293;-84
2024/02/08 02:32:21;;;;;;;;;;;;;;;;;;5107316;28;19998;-86
2024/02/08 02:34:46;;;;;;;;;;;;;;;;;;5105346;28;20266;-84
2024/02/08 02:37:12;;;;;;;;;;;;;;;;;;5108351;28;19911;-83
2024/02/08 02:39:38;;;;;;;;;;;;;;;;;;5107774;28;20024;-83
2024/02/08 02:42:06;;;;;;;;;;;;;;;;;;5107942;28;20430;-84
2024/02/08 02:44:31;;;;;;;;;;;;;;;;;;5109132;28;19916;-84
2024/02/08 02:46:59;;;;;;;;;;;;;;;;;;5109626;28;19912;-83
2024/02/08 02:49:26;;;;;;;;;;;;;;;;;;5109162;27;19908;-83
2024/02/08 02:51:52;;;;;;;;;;;;;;;;;;5110061;28;19915;-83
2024/02/08 02:54:19;;;;;;;;;;;;;;;;;;5104779;28;19912;-84
2024/02/08 02:56:49;;;;;;;;;;;;;;;;;;5110034;28;20048;-84
2024/02/08 02:59:18;;;;;;;;;;;;;;;;;;5101208;27;20395;-83
2024/02/08 03:01:47;;;;;;;;;;;;;;;;;;5106207;28;20411;-83
2024/02/08 03:04:13;;;;;;;;;;;;;;;;;;5103655;27;19994;-83
2024/02/08 03:06:42;;;;;;;;;;;;;;;;;;5110080;28;20044;-83
2024/02/08 03:09:14;;;;;;;;;;;;;;;;;;5103299;28;19915;-83
2024/02/08 03:11:41;;;;;;;;;;;;;;;;;;5106272;28;20384;-84
2024/02/08 03:14:07;;;;;;;;;;;;;;;;;;5111945;28;19911;-84
2024/02/08 03:16:36;;;;;;;;;;;;;;;;;;5105644;28;20022;-84
2024/02/08 03:19:05;;;;;;;;;;;;;;;;;;5089332;28;19912;-84
2024/02/08 03:21:33;;;;;;;;;;;;;;;;;;5105753;28;19908;-84
2024/02/08 03:23:59;;;;;;;;;;;;;;;;;;5109872;28;19912;-84
2024/02/08 03:26:25;;;;;;;;;;;;;;;;;;5106762;27;20010;-84
2024/02/08 03:28:54;;;;;;;;;;;;;;;;;;5103074;28;19919;-84
2024/02/08 03:31:20;;;;;;;;;;;;;;;;;;5109496;28;19954;-84
2024/02/08 03:33:45;;;;;;;;;;;;;;;;;;5107442;28;19955;-84
2024/02/08 03:36:12;;;;;;;;;;;;;;;;;;5109053;28;20010;-84
2024/02/08 03:38:39;;;;;;;;;;;;;;;;;;5102228;28;19919;-84
2024/02/08 03:41:05;;;;;;;;;;;;;;;;;;5106671;28;20051;-84
2024/02/08 03:43:32;;;;;;;;;;;;;;;;;;5110663;28;19907;-84
2024/02/08 03:45:58;;;;;;;;;;;;;;;;;;5105101;27;19953;-84
2024/02/08 03:48:24;;;;;;;;;;;;;;;;;;5088923;28;20144;-84
2024/02/08 03:50:50;;;;;;;;;;;;;;;;;;5105979;28;20317;-85
2024/02/08 03:53:17;;;;;;;;;;;;;;;;;;5109141;28;19980;-84
2024/02/08 03:55:43;;;;;;;;;;;;;;;;;;5114291;28;19908;-84
2024/02/08 03:58:09;;;;;;;;;;;;;;;;;;5110617;27;19961;-84
2024/02/08 04:00:35;;;;;;;;;;;;;;;;;;5113151;28;19915;-85
2024/02/08 04:03:10;;;;;;;;;;;;;;;;;;5107591;28;19911;-84
2024/02/08 04:05:58;;;;;;;;;;;;;;;;;;5107227;28;19943;-84
2024/02/08 04:54:48;;;;;;;;;;;;;;;;;;5125390;28;20230;-84
2024/02/08 04:57:14;;;;;;;;;;;;;;;;;;5120688;27;19920;-85
2024/02/08 04:59:40;;;;;;;;;;;;;;;;;;5105073;28;19908;-84
2024/02/08 05:02:06;;;;;;;;;;;;;;;;;;5116519;28;19926;-85
2024/02/08 05:04:35;;;;;;;;;;;;;;;;;;5127445;28;19915;-84
2024/02/08 05:07:01;;;;;;;;;;;;;;;;;;5125385;28;19910;-85
2024/02/08 05:09:30;;;;;;;;;;;;;;;;;;5127190;28;20365;-84
2024/02/08 05:11:56;;;;;;;;;;;;;;;;;;5123583;28;19972;-85
2024/02/08 05:14:22;;;;;;;;;;;;;;;;;;5110647;28;19950;-84
2024/02/08 05:16:54;;;;;;;;;;;;;;;;;;5103005;28;19907;-84
2024/02/08 05:19:23;;;;;;;;;;;;;;;;;;5104194;28;20370;-85
2024/02/08 05:21:49;;;;;;;;;;;;;;;;;;5098688;28;19955;-84
2024/02/08 05:24:14;;;;;;;;;;;;;;;;;;5105057;28;20001;-85
2024/02/08 05:26:40;;;;;;;;;;;;;;;;;;5106353;28;19910;-85
2024/02/08 05:29:07;;;;;;;;;;;;;;;;;;5102092;28;19941;-84
2024/02/08 05:31:39;;;;;;;;;;;;;;;;;;5102767;28;19907;-84
2024/02/08 05:34:07;;;;;;;;;;;;;;;;;;5106013;27;20007;-84
2024/02/08 05:36:33;;;;;;;;;;;;;;;;;;5111158;28;19907;-85
2024/02/08 05:38:59;;;;;;;;;;;;;;;;;;5105360;28;20319;-85
2024/02/08 05:41:24;;;;;;;;;;;;;;;;;;5112008;28;19927;-85
2024/02/08 05:43:51;;;;;;;;;;;;;;;;;;5111483;28;19991;-84
2024/02/08 05:46:29;;;;;;;;;;;;;;;;;;5109533;27;19907;-85
2024/02/08 05:49:03;;;;;;;;;;;;;;;;;;5106285;28;20054;-84
2024/02/08 05:51:29;;;;;;;;;;;;;;;;;;5104489;27;19924;-84
2024/02/08 05:53:55;;;;;;;;;;;;;;;;;;5109074;28;19918;-83
2024/02/08 05:56:21;;;;;;;;;;;;;;;;;;5103422;28;20273;-85
2024/02/08 05:58:51;;;;;;;;;;;;;;;;;;5104507;28;20282;-84
2024/02/08 06:01:19;;;;;;;;;;;;;;;;;;5109203;27;19908;-84
2024/02/08 06:03:46;;;;;;;;;;;;;;;;;;5110039;27;19911;-85
2024/02/08 06:08:57;;;;;;;;;;;;;;;;;;5099135;27;19942;-84
2024/02/08 06:11:23;;;;;;;;;;;;;;;;;;5093965;28;20328;-84
2024/02/08 06:13:58;;;;;;;;;;;;;;;;;;5101247;27;19934;-85
2024/02/08 06:16:27;;;;;;;;;;;;;;;;;;5106685;28;19914;-85
2024/02/08 06:18:57;;;;;;;;;;;;;;;;;;5109560;27;19912;-85
2024/02/08 06:21:38;;;;;;;;;;;;;;;;;;5108478;28;19904;-85
2024/02/08 06:24:29;;;;;;;;;;;;;;;;;;5106173;28;19908;-85
2024/02/08 06:26:55;;;;;;;;;;;;;;;;;;5107544;27;20352;-84
2024/02/08 06:29:25;;;;;;;;;;;;;;;;;;5111776;28;19912;-84
2024/02/08 06:32:00;;;;;;;;;;;;;;;;;;5108142;28;20537;-84
2024/02/08 06:34:42;;;;;;;;;;;;;;;;;;5108794;28;19964;-85
2024/02/08 06:37:26;;;;;;;;;;;;;;;;;;5109833;28;19957;-84
2024/02/08 06:39:55;;;;;;;;;;;;;;;;;;5105643;28;20302;-84
2024/02/08 07:37:17;;;;;;;;;;;;;;;;;;5109436;28;19915;-85
2024/02/08 07:39:46;;;;;;;;;;;;;;;;;;5110035;28;20435;-84
2024/02/08 07:42:17;;;;;;;;;;;;;;;;;;5106297;28;19942;-84
2024/02/08 07:44:48;;;;;;;;;;;;;;;;;;5110264;28;19904;-84
2024/02/08 07:47:14;;;;;;;;;;;;;;;;;;5108905;28;19958;-85
2024/02/08 07:49:43;;;;;;;;;;;;;;;;;;5097656;28;19958;-84
2024/02/08 07:52:19;;;;;;;;;;;;;;;;;;5104834;28;19961;-85
2024/02/08 07:54:46;;;;;;;;;;;;;;;;;;5100552;28;19985;-85
2024/02/08 07:57:12;;;;;;;;;;;;;;;;;;5104653;28;19980;-84
2024/02/08 07:59:42;;;;;;;;;;;;;;;;;;5090064;28;19908;-85
2024/02/08 08:02:12;;;;;;;;;;;;;;;;;;5104526;28;20437;-89
2024/02/08 08:04:53;;;;;;;;;;;;;;;;;;5083302;28;20382;-87
2024/02/08 08:07:23;;;;;;;;;;;;;;;;;;5109503;27;19955;-84
2024/02/08 08:09:55;;;;;;;;;;;;;;;;;;5106191;28;19914;-84
2024/02/08 08:12:22;;;;;;;;;;;;;;;;;;5102343;28;19908;-85
2024/02/08 08:19:54;;;;;;;;;;;;;;;;;;5102651;28;19908;-86
2024/02/08 08:25:10;;;;;;;;;;;;;;;;;;5098238;28;19987;-85
2024/02/08 08:30:27;;;;;;;;;;;;;;;;;;5100510;28;19988;-84
2024/02/08 08:35:45;;;;;;;;;;;;;;;;;;5107398;28;20442;-84
2024/02/08 08:40:47;;;;;;;;;;;;;;;;;;5102300;28;19994;-86
2024/02/08 08:43:19;;;;;;;;;;;;;;;;;;5100143;28;19994;-85
2024/02/08 08:45:50;;;;;;;;;;;;;;;;;;5095500;28;19908;-84
2024/02/08 08:48:18;;;;;;;;;;;;;;;;;;5104675;28;19916;-86
2024/02/08 08:50:49;;;;;;;;;;;;;;;;;;5089879;28;20419;-85
2024/02/08 08:53:19;;;;;;;;;;;;;;;;;;5095529;28;19912;-85
2024/02/08 08:55:49;;;;;;;;;;;;;;;;;;5105486;28;19918;-85
2024/02/08 08:58:15;;;;;;;;;;;;;;;;;;5095827;28;20019;-84
2024/02/08 09:00:46;;;;;;;;;;;;;;;;;;5105800;28;19998;-83
2024/02/08 09:03:25;;;;;;;;;;;;;;;;;;5104101;28;20381;-83
2024/02/08 09:05:51;;;;;;;;;;;;;;;;;;5102976;28;19921;-85
2024/02/08 09:08:21;;;;;;;;;;;;;;;;;;5109666;28;20003;-85
2024/02/08 09:10:49;;;;;;;;;;;;;;;;;;5108307;27;19908;-86
2024/02/08 09:13:18;;;;;;;;;;;;;;;;;;5106691;28;19935;-86
2024/02/08 09:16:29;;;;;;;;;;;;;;;;;;5104218;28;19908;-85
2024/02/08 09:21:26;;;;;;;;;;;;;;;;;;5104989;28;19918;-85
2024/02/08 09:23:52;;;;;;;;;;;;;;;;;;5093987;28;20003;-84
2024/02/08 09:26:24;;;;;;;;;;;;;;;;;;5107631;28;19953;-85
2024/02/08 09:28:50;;;;;;;;;;;;;;;;;;5110781;27;19911;-84
2024/02/08 09:31:17;;;;;;;;;;;;;;;;;;5105432;28;19922;-84
2024/02/08 09:33:47;;;;;;;;;;;;;;;;;;5108713;28;20018;-83
2024/02/08 09:36:16;;;;;;;;;;;;;;;;;;5100051;28;19931;-82
2024/02/08 09:38:44;;;;;;;;;;;;;;;;;;5105892;28;19912;-85
2024/02/08 09:41:15;;;;;;;;;;;;;;;;;;5104055;28;19911;-79
2024/02/08 09:43:44;;;;;;;;;;;;;;;;;;5090193;28;19916;-82
2024/02/08 09:46:10;;;;;;;;;;;;;;;;;;5107887;28;19953;-82
2024/02/08 09:48:48;;;;;;;;;;;;;;;;;;5107925;28;20308;-81
2024/02/08 09:51:23;;;;;;;;;;;;;;;;;;5109266;28;19950;-85
2024/02/08 09:53:51;;;;;;;;;;;;;;;;;;5105721;28;19919;-82
2024/02/08 09:56:25;;;;;;;;;;;;;;;;;;5110339;28;20293;-80
2024/02/08 09:59:02;;;;;;;;;;;;;;;;;;5108368;28;19915;-81
2024/02/08 10:01:35;;;;;;;;;;;;;;;;;;5104597;28;19924;-82
2024/02/08 10:04:04;;;;;;;;;;;;;;;;;;5087448;28;20324;-82
2024/02/08 10:06:38;;;;;;;;;;;;;;;;;;5107181;28;20010;-82
2024/02/08 10:09:33;;;;;;;;;;;;;;;;;;5106299;28;20362;-82
2024/02/08 10:11:57;;;;;;;;;;;;;;;;;;5108284;28;20312;-82
2024/02/08 10:14:32;;;;;;;;;;;;;;;;;;5107304;28;20366;-82
2024/02/08 10:17:00;;;;;;;;;;;;;;;;;;5105275;28;20381;-83
2024/02/08 10:21:56;;;;;;;;;;;;;;;;;;5103939;28;20349;-82
2024/02/08 10:24:27;;;;;;;;;;;;;;;;;;5106797;28;19908;-82
2024/02/08 10:26:58;;;;;;;;;;;;;;;;;;5106878;28;19908;-82
2024/02/08 10:29:25;;;;;;;;;;;;;;;;;;5107574;28;20487;-82
2024/02/08 10:31:52;;;;;;;;;;;;;;;;;;5103050;28;19924;-81
2024/02/08 10:34:32;;;;;;;;;;;;;;;;;;5089243;28;19915;-82
2024/02/08 10:36:59;;;;;;;;;;;;;;;;;;5105509;28;19911;-82
2024/02/08 10:39:25;;;;;;;;;;;;;;;;;;5103573;28;19912;-81
2024/02/08 10:41:57;;;;;;;;;;;;;;;;;;5101465;28;19916;-81
2024/02/08 10:44:24;;;;;;;;;;;;;;;;;;5106268;28;19919;-81
2024/02/08 10:46:55;;;;;;;;;;;;;;;;;;5108423;28;20096;-82
2024/02/08 10:49:22;;;;;;;;;;;;;;;;;;5106931;28;20354;-82
2024/02/08 10:51:48;;;;;;;;;;;;;;;;;;5102460;28;19915;-83
2024/02/08 10:54:14;;;;;;;;;;;;;;;;;;5104773;27;20486;-83
2024/02/08 10:57:06;;;;;;;;;;;;;;;;;;5106602;28;19908;-83
2024/02/08 10:59:47;;;;;;;;;;;;;;;;;;5102391;28;20271;-83
2024/02/08 11:05:21;;;;;;;;;;;;;;;;;;5075334;28;20285;-82
2024/02/08 11:07:48;;;;;;;;;;;;;;;;;;5107353;28;19907;-82
2024/02/08 11:10:20;;;;;;;;;;;;;;;;;;5106795;28;19938;-82
2024/02/08 11:12:49;;;;;;;;;;;;;;;;;;5107336;28;19907;-83
2024/02/08 11:15:15;;;;;;;;;;;;;;;;;;5105262;28;20370;-83
2024/02/08 11:17:49;;;;;;;;;;;;;;;;;;5103516;28;19953;-83
2024/02/08 11:20:17;;;;;;;;;;;;;;;;;;5103961;28;19915;-84
2024/02/08 11:22:57;;;;;;;;;;;;;;;;;;5103292;28;20556;-83
2024/02/08 11:25:33;;;;;;;;;;;;;;;;;;5102784;28;19927;-83
2024/02/08 11:27:59;;;;;;;;;;;;;;;;;;5103648;28;19912;-83
2024/02/08 11:30:25;;;;;;;;;;;;;;;;;;5102373;28;20798;-83
2024/02/08 11:32:51;;;;;;;;;;;;;;;;;;5106273;28;20274;-83
2024/02/08 11:35:17;;;;;;;;;;;;;;;;;;5106706;28;19916;-83
2024/02/08 11:37:45;;;;;;;;;;;;;;;;;;5108116;28;20283;-83
2024/02/08 11:40:11;;;;;;;;;;;;;;;;;;5106030;28;19918;-83
2024/02/08 11:42:38;;;;;;;;;;;;;;;;;;5084496;28;19912;-84
2024/02/08 11:45:08;;;;;;;;;;;;;;;;;;5104373;28;20410;-83
2024/02/08 11:47:35;;;;;;;;;;;;;;;;;;5106444;28;20340;-83
2024/02/08 11:50:01;;;;;;;;;;;;;;;;;;5102895;28;19934;-83
2024/02/08 11:52:27;;;;;;;;;;;;;;;;;;5100958;28;19911;-82
2024/02/08 11:54:56;;;;;;;;;;;;;;;;;;5107049;28;19916;-83
2024/02/08 11:57:22;;;;;;;;;;;;;;;;;;5105370;28;19915;-84
2024/02/08 11:59:47;;;;;;;;;;;;;;;;;;5106146;28;20259;-83
2024/02/08 12:02:16;;;;;;;;;;;;;;;;;;5106637;28;19981;-83
2024/02/08 12:04:42;;;;;;;;;;;;;;;;;;5107497;28;19977;-83
2024/02/08 12:07:14;;;;;;;;;;;;;;;;;;5106126;28;20290;-83
2024/02/08 12:09:40;;;;;;;;;;;;;;;;;;5102909;28;19911;-83
2024/02/08 12:12:07;;;;;;;;;;;;;;;;;;5106749;28;20251;-83
2024/02/08 12:14:38;;;;;;;;;;;;;;;;;;5103315;28;19927;-83
2024/02/08 12:17:06;;;;;;;;;;;;;;;;;;5100483;28;20270;-83
2024/02/08 12:19:32;;;;;;;;;;;;;;;;;;5098673;28;19940;-82
2024/02/08 12:21:58;;;;;;;;;;;;;;;;;;5098091;28;19962;-83
2024/02/08 12:24:24;;;;;;;;;;;;;;;;;;5096404;28;19947;-82
2024/02/08 12:26:53;;;;;;;;;;;;;;;;;;5104575;28;20327;-83
2024/02/08 12:29:19;;;;;;;;;;;;;;;;;;5106462;28;19962;-83
2024/02/08 12:31:45;;;;;;;;;;;;;;;;;;5104975;28;19937;-82
2024/02/08 12:34:13;;;;;;;;;;;;;;;;;;5106378;28;19924;-83
2024/02/08 12:36:40;;;;;;;;;;;;;;;;;;5106902;28;19915;-83
2024/02/08 12:39:17;;;;;;;;;;;;;;;;;;5096622;28;19980;-82
2024/02/08 12:42:04;;;;;;;;;;;;;;;;;;5107003;28;19963;-84
2024/02/08 12:44:30;;;;;;;;;;;;;;;;;;5107475;27;19924;-83
2024/02/08 12:46:56;;;;;;;;;;;;;;;;;;5107913;28;20319;-83
2024/02/08 12:49:22;;;;;;;;;;;;;;;;;;5103021;28;19939;-83
2024/02/08 12:51:49;;;;;;;;;;;;;;;;;;5110767;28;20405;-83
2024/02/08 12:54:15;;;;;;;;;;;;;;;;;;5109988;28;20366;-83
2024/02/08 12:56:40;;;;;;;;;;;;;;;;;;5110856;28;19920;-82
2024/02/08 12:59:06;;;;;;;;;;;;;;;;;;5110131;28;19970;-83
2024/02/08 13:01:34;;;;;;;;;;;;;;;;;;5109920;28;19972;-82
2024/02/08 13:03:59;;;;;;;;;;;;;;;;;;5108494;28;19916;-83
2024/02/08 13:06:25;;;;;;;;;;;;;;;;;;5110515;28;19920;-83
2024/02/08 13:08:51;;;;;;;;;;;;;;;;;;5099415;28;19916;-83
2024/02/08 13:11:17;;;;;;;;;;;;;;;;;;5109155;28;19993;-82
2024/02/08 13:13:43;;;;;;;;;;;;;;;;;;5109543;28;19923;-83
2024/02/08 13:16:09;;;;;;;;;;;;;;;;;;5107294;28;19911;-83
2024/02/08 13:18:38;;;;;;;;;;;;;;;;;;5106792;28;20306;-82
2024/02/08 13:21:04;;;;;;;;;;;;;;;;;;5111293;28;20438;-84
2024/02/08 13:23:30;;;;;;;;;;;;;;;;;;5107201;28;19922;-84
2024/02/08 13:25:55;;;;;;;;;;;;;;;;;;5099713;28;19920;-84
2024/02/08 13:28:23;;;;;;;;;;;;;;;;;;5109292;28;19912;-83
2024/02/08 13:30:51;;;;;;;;;;;;;;;;;;5100151;28;21727;-84
2024/02/08 13:33:17;;;;;;;;;;;;;;;;;;5106180;28;20363;-84
2024/02/08 13:35:43;;;;;;;;;;;;;;;;;;5107125;27;20008;-83
2024/02/08 13:38:14;;;;;;;;;;;;;;;;;;5105874;28;19915;-84
2024/02/08 13:40:43;;;;;;;;;;;;;;;;;;5107628;28;19919;-84
2024/02/08 13:43:10;;;;;;;;;;;;;;;;;;5108705;28;19912;-84
2024/02/08 13:45:36;;;;;;;;;;;;;;;;;;5108318;28;19923;-84
2024/02/08 13:48:03;;;;;;;;;;;;;;;;;;5106849;28;19920;-84
2024/02/08 13:50:29;;;;;;;;;;;;;;;;;;5107992;28;20037;-81
2024/02/08 13:52:55;;;;;;;;;;;;;;;;;;5109158;28;19999;-84
2024/02/08 13:55:20;;;;;;;;;;;;;;;;;;5108431;27;19942;-82
2024/02/08 13:57:49;;;;;;;;;;;;;;;;;;5103093;27;20363;-83
2024/02/08 14:00:20;;;;;;;;;;;;;;;;;;5104434;28;19916;-85
2024/02/08 14:02:49;;;;;;;;;;;;;;;;;;5104684;28;19962;-84
2024/02/08 14:05:19;;;;;;;;;;;;;;;;;;5108775;27;19912;-86
2024/02/08 14:07:47;;;;;;;;;;;;;;;;;;5108936;28;20002;-84
2024/02/08 14:10:27;;;;;;;;;;;;;;;;;;5109747;28;19957;-84
2024/02/08 14:12:58;;;;;;;;;;;;;;;;;;5107255;28;19916;-85
2024/02/08 14:15:24;;;;;;;;;;;;;;;;;;5114112;27;19912;-85
2024/02/08 14:17:54;;;;;;;;;;;;;;;;;;5104275;27;19912;-85
2024/02/08 14:20:43;;;;;;;;;;;;;;;;;;5112539;27;20013;-86
2024/02/08 14:23:09;;;;;;;;;;;;;;;;;;5108159;28;19916;-86
2024/02/08 14:26:09;;;;;;;;;;;;;;;;;;5101556;28;19915;-85
2024/02/08 14:28:38;;;;;;;;;;;;;;;;;;5111359;28;19908;-86
2024/02/08 14:31:03;;;;;;;;;;;;;;;;;;5114806;27;19912;-84
2024/02/08 14:33:29;;;;;;;;;;;;;;;;;;5112044;28;20423;-86
2024/02/08 14:35:55;;;;;;;;;;;;;;;;;;5111510;28;20323;-86
2024/02/08 14:38:21;;;;;;;;;;;;;;;;;;5111702;28;19934;-86
2024/02/08 14:40:47;;;;;;;;;;;;;;;;;;5113449;27;19912;-86
2024/02/08 14:43:25;;;;;;;;;;;;;;;;;;5116601;27;19998;-85
2024/02/08 14:45:53;;;;;;;;;;;;;;;;;;5098796;27;19986;-86
2024/02/08 14:48:22;;;;;;;;;;;;;;;;;;5111360;27;20297;-85
2024/02/08 14:50:55;;;;;;;;;;;;;;;;;;5115298;27;19926;-86
2024/02/08 14:53:22;;;;;;;;;;;;;;;;;;5112950;27;19922;-85
2024/02/08 14:55:51;;;;;;;;;;;;;;;;;;5123737;27;20058;-85
2024/02/08 14:58:33;;;;;;;;;;;;;;;;;;5109427;27;19931;-85
2024/02/08 15:01:07;;;;;;;;;;;;;;;;;;5100221;28;19919;-82
2024/02/08 15:03:38;;;;;;;;;;;;;;;;;;5105192;27;19920;-87
2024/02/08 15:06:05;;;;;;;;;;;;;;;;;;5111008;27;20281;-83
2024/02/08 15:08:46;;;;;;;;;;;;;;;;;;5112260;27;19996;-86
2024/02/08 15:14:01;;;;;;;;;;;;;;;;;;5111199;27;19923;-85
2024/02/08 15:16:30;;;;;;;;;;;;;;;;;;5105821;27;20874;-79
2024/02/08 15:18:56;;;;;;;;;;;;;;;;;;5086896;28;20006;-84
2024/02/08 15:21:25;;;;;;;;;;;;;;;;;;5096785;28;19942;-80
2024/02/08 15:26:44;;;;;;;;;;;;;;;;;;5103455;28;19922;-86
2024/02/08 15:29:19;;;;;;;;;;;;;;;;;;5105955;27;19938;-86
2024/02/08 15:36:50;;;;;;;;;;;;;;;;;;5105002;28;19916;-81
2024/02/08 15:42:09;;;;;;;;;;;;;;;;;;5104620;28;19955;-82
2024/02/08 15:44:35;;;;;;;;;;;;;;;;;;5098320;28;20932;-86
2024/02/08 15:47:01;;;;;;;;;;;;;;;;;;5103850;27;20002;-86
2024/02/08 15:49:28;;;;;;;;;;;;;;;;;;5109457;28;20003;-89
2024/02/08 15:51:55;;;;;;;;;;;;;;;;;;5102858;28;20023;-82
2024/02/08 15:54:23;;;;;;;;;;;;;;;;;;5102895;28;20286;-83
2024/02/08 15:56:53;;;;;;;;;;;;;;;;;;5103179;28;19990;-83
2024/02/08 15:59:22;;;;;;;;;;;;;;;;;;5104568;28;19912;-82
2024/02/08 16:01:49;;;;;;;;;;;;;;;;;;5109270;27;20339;-83
2024/02/08 16:07:11;;;;;;;;;;;;;;;;;;5108252;28;20400;-82
2024/02/08 16:09:37;;;;;;;;;;;;;;;;;;5107803;28;19947;-84
2024/02/08 16:14:59;;;;;;;;;;;;;;;;;;5113998;27;19976;-82
2024/02/08 16:17:38;;;;;;;;;;;;;;;;;;5102241;28;19920;-81
2024/02/08 16:22:55;;;;;;;;;;;;;;;;;;5107025;28;19923;-81
2024/02/08 16:25:44;;;;;;;;;;;;;;;;;;5108569;28;20281;-81
2024/02/08 16:28:16;;;;;;;;;;;;;;;;;;5110198;27;19923;-85
2024/02/08 16:30:59;;;;;;;;;;;;;;;;;;5113869;27;19938;-84
2024/02/08 16:38:57;;;;;;;;;;;;;;;;;;5102547;28;20305;-85
2024/02/08 16:41:23;;;;;;;;;;;;;;;;;;5102256;28;19917;-84
2024/02/08 16:43:56;;;;;;;;;;;;;;;;;;5103735;28;19943;-84
2024/02/08 16:46:35;;;;;;;;;;;;;;;;;;5105769;28;19920;-85
2024/02/08 16:49:04;;;;;;;;;;;;;;;;;;5112265;28;19995;-88
2024/02/08 16:51:37;;;;;;;;;;;;;;;;;;5121814;28;19930;-83
2024/02/08 16:54:17;;;;;;;;;;;;;;;;;;5101158;28;19927;-85
2024/02/08 16:56:44;;;;;;;;;;;;;;;;;;5102935;28;19951;-85
2024/02/08 16:59:15;;;;;;;;;;;;;;;;;;5109969;28;19922;-86
2024/02/08 17:01:52;;;;;;;;;;;;;;;;;;5108706;28;20297;-86
2024/02/08 17:04:28;;;;;;;;;;;;;;;;;;5102790;28;20417;-86
2024/02/08 17:07:02;;;;;;;;;;;;;;;;;;5109282;28;19958;-86
2024/02/08 17:09:34;;;;;;;;;;;;;;;;;;5108504;28;19912;-85
2024/02/08 17:12:04;;;;;;;;;;;;;;;;;;5111365;28;20003;-86
2024/02/08 17:14:33;;;;;;;;;;;;;;;;;;5107289;28;19924;-86
2024/02/08 17:16:59;;;;;;;;;;;;;;;;;;5111163;28;19998;-86
2024/02/08 17:22:18;;;;;;;;;;;;;;;;;;5107161;28;19977;-87
2024/02/08 17:25:02;;;;;;;;;;;;;;;;;;5104186;28;19919;-86
2024/02/08 17:30:06;;;;;;;;;;;;;;;;;;5110159;28;19998;-86
2024/02/08 17:32:32;;;;;;;;;;;;;;;;;;5113146;28;19912;-86
2024/02/08 17:34:58;;;;;;;;;;;;;;;;;;5112382;28;20003;-86
2024/02/08 17:37:37;;;;;;;;;;;;;;;;;;5112929;28;20410;-87
2024/02/08 17:40:16;;;;;;;;;;;;;;;;;;5111430;28;19919;-87
2024/02/08 17:42:42;;;;;;;;;;;;;;;;;;5100698;27;20030;-85
2024/02/08 17:45:09;;;;;;;;;;;;;;;;;;5086582;28;19919;-86
2024/02/08 17:47:35;;;;;;;;;;;;;;;;;;5106220;28;20394;-87
2024/02/08 17:50:04;;;;;;;;;;;;;;;;;;5096651;27;19938;-84
2024/02/08 17:52:36;;;;;;;;;;;;;;;;;;5108648;27;20305;-84
2024/02/08 17:55:03;;;;;;;;;;;;;;;;;;5108947;28;19924;-85
2024/02/08 17:57:29;;;;;;;;;;;;;;;;;;5088697;28;19955;-83
2024/02/08 18:00:01;;;;;;;;;;;;;;;;;;5106146;28;19962;-85
2024/02/08 18:02:27;;;;;;;;;;;;;;;;;;5110861;28;20054;-84
2024/02/08 18:04:53;;;;;;;;;;;;;;;;;;5103522;27;20011;-85
2024/02/08 18:07:19;;;;;;;;;;;;;;;;;;5113502;28;19966;-84
2024/02/08 18:09:53;;;;;;;;;;;;;;;;;;5106561;28;19951;-85
2024/02/08 18:12:21;;;;;;;;;;;;;;;;;;5100792;27;19951;-86
2024/02/08 18:14:47;;;;;;;;;;;;;;;;;;5117459;27;19928;-86
2024/02/08 18:17:19;;;;;;;;;;;;;;;;;;5103587;28;19937;-84
2024/02/08 18:19:48;;;;;;;;;;;;;;;;;;5104731;27;19923;-82
2024/02/08 18:22:14;;;;;;;;;;;;;;;;;;5103439;28;19951;-85
2024/02/08 18:24:41;;;;;;;;;;;;;;;;;;5106687;28;19961;-86
2024/02/08 18:27:07;;;;;;;;;;;;;;;;;;5103311;28;19912;-86
2024/02/08 18:29:35;;;;;;;;;;;;;;;;;;5108248;28;19912;-85
2024/02/08 18:32:01;;;;;;;;;;;;;;;;;;5109719;28;19918;-88
2024/02/08 18:34:27;;;;;;;;;;;;;;;;;;5088625;28;19923;-86
2024/02/08 18:36:56;;;;;;;;;;;;;;;;;;5107384;28;19941;-87
2024/02/08 18:39:32;;;;;;;;;;;;;;;;;;5110638;28;19911;-87
2024/02/08 18:42:00;;;;;;;;;;;;;;;;;;5110793;28;19963;-88
2024/02/08 18:44:28;;;;;;;;;;;;;;;;;;5108548;28;19928;-87
2024/02/08 18:46:54;;;;;;;;;;;;;;;;;;5107866;27;19923;-88
2024/02/08 18:49:21;;;;;;;;;;;;;;;;;;5109763;28;20047;-88
2024/02/08 18:51:47;;;;;;;;;;;;;;;;;;5110713;28;19922;-88
2024/02/08 18:54:20;;;;;;;;;;;;;;;;;;5110076;28;19915;-88
2024/02/08 18:56:46;;;;;;;;;;;;;;;;;;5108661;28;19947;-87
2024/02/08 18:59:18;;;;;;;;;;;;;;;;;;5112207;28;19942;-89
2024/02/08 19:01:44;;;;;;;;;;;;;;;;;;5093068;28;19918;-88
2024/02/08 19:04:15;;;;;;;;;;;;;;;;;;5108935;28;19919;-89
2024/02/08 19:06:41;;;;;;;;;;;;;;;;;;5111218;28;19920;-89
2024/02/08 19:09:07;;;;;;;;;;;;;;;;;;5110820;28;20354;-89
2024/02/08 19:11:34;;;;;;;;;;;;;;;;;;5102437;28;20267;-88
2024/02/08 19:14:01;;;;;;;;;;;;;;;;;;5106413;28;20298;-87
2024/02/08 19:16:29;;;;;;;;;;;;;;;;;;5083866;28;20405;-92
2024/02/08 19:19:00;;;;;;;;;;;;;;;;;;5103921;28;20549;-89
2024/02/08 19:21:26;;;;;;;;;;;;;;;;;;5103911;28;19912;-88
2024/02/08 19:23:55;;;;;;;;;;;;;;;;;;5085711;28;19912;-88
2024/02/08 19:26:21;;;;;;;;;;;;;;;;;;5100745;28;20018;-88
2024/02/08 19:28:47;;;;;;;;;;;;;;;;;;5095937;28;20347;-88
2024/02/08 19:31:14;;;;;;;;;;;;;;;;;;5108629;28;20370;-88
2024/02/08 19:33:41;;;;;;;;;;;;;;;;;;5107458;28;19958;-89
2024/02/08 19:36:09;;;;;;;;;;;;;;;;;;5102209;27;19928;-90
2024/02/08 19:38:35;;;;;;;;;;;;;;;;;;5113096;28;19912;-91